createdAt,value
2024-04-06T00:00:42.302Z,86.12
2024-04-06T00:03:30.131Z,86.44
2024-04-06T00:05:58.081Z,86.68
2024-04-06T00:08:25.982Z,86.90
2024-04-06T00:10:53.913Z,87.07
2024-04-06T00:13:21.774Z,87.29
2024-04-06T00:15:49.751Z,87.81
2024-04-06T00:18:17.616Z,87.72
2024-04-06T00:20:45.472Z,88.12
2024-04-06T00:23:13.497Z,88.17
2024-04-06T00:25:41.319Z,88.41
2024-04-06T00:28:09.276Z,88.64
2024-04-06T00:30:37.136Z,88.78
2024-04-06T00:33:05.208Z,88.78
2024-04-06T00:35:33.074Z,89.16
2024-04-06T00:38:01.062Z,89.41
2024-04-06T00:40:29.131Z,89.73
2024-04-06T00:42:57.080Z,89.62
2024-04-06T00:45:25.255Z,89.71
2024-04-06T00:47:53.131Z,90.09
2024-04-06T00:50:21.149Z,90.18
2024-04-06T00:52:49.069Z,90.42
2024-04-06T00:55:18.260Z,90.62
2024-04-06T00:57:46.113Z,90.56
2024-04-06T01:00:14.201Z,90.69
2024-04-06T01:02:42.356Z,90.95
2024-04-06T01:05:10.223Z,90.99
2024-04-06T01:07:40.647Z,91.18
2024-04-06T01:10:08.615Z,91.16
2024-04-06T01:12:36.688Z,91.41
2024-04-06T01:15:05.295Z,91.43
2024-04-06T01:17:33.447Z,91.40
2024-04-06T01:20:01.627Z,91.60
2024-04-06T01:22:29.781Z,91.69
2024-04-06T01:24:59.137Z,92.01
2024-04-06T01:27:29.507Z,92.16
2024-04-06T01:29:57.479Z,92.46
2024-04-06T01:32:25.552Z,92.35
2024-04-06T01:34:53.615Z,92.48
2024-04-06T01:37:21.482Z,92.73
2024-04-06T01:39:49.346Z,92.64
2024-04-06T01:42:17.222Z,92.61
2024-04-06T01:44:45.087Z,92.96
2024-04-06T01:47:12.942Z,93.03
2024-04-06T01:49:40.809Z,93.10
2024-04-06T01:52:08.672Z,93.18
2024-04-06T01:54:36.545Z,93.11
2024-04-06T01:57:04.812Z,93.50
2024-04-06T01:59:35.954Z,93.57
2024-04-06T02:02:04.332Z,93.50
2024-04-06T02:04:32.204Z,93.81
2024-04-06T02:07:00.068Z,93.78
2024-04-06T02:09:27.927Z,93.65
2024-04-06T02:11:55.892Z,93.90
2024-04-06T02:14:23.898Z,93.88
2024-04-06T02:16:52.400Z,93.97
2024-04-06T02:19:20.224Z,94.18
2024-04-06T02:21:48.074Z,94.01
2024-04-06T02:24:18.513Z,94.23
2024-04-06T02:26:46.373Z,94.25
2024-04-06T02:29:14.957Z,94.82
2024-04-06T02:31:43.519Z,94.98
2024-04-06T02:34:11.497Z,94.88
2024-04-06T02:36:42.640Z,94.88
2024-04-06T02:39:11.736Z,94.89
2024-04-06T02:41:39.599Z,94.56
2024-04-06T02:44:07.468Z,94.32
2024-04-06T02:46:35.337Z,93.89
2024-04-06T02:49:03.194Z,93.87
2024-04-06T02:51:31.268Z,93.48
2024-04-06T02:53:59.128Z,93.09
2024-04-06T02:56:27.109Z,93.40
2024-04-06T02:58:55.065Z,93.38
2024-04-06T03:01:22.929Z,93.02
2024-04-06T03:03:50.791Z,93.13
2024-04-06T03:06:18.764Z,93.37
2024-04-06T03:08:46.625Z,93.26
2024-04-06T03:11:14.595Z,93.35
2024-04-06T03:13:42.464Z,93.05
2024-04-06T03:16:10.325Z,93.61
2024-04-06T03:18:38.191Z,93.82
2024-04-06T03:21:07.081Z,93.94
2024-04-06T03:23:34.966Z,93.80
2024-04-06T03:26:02.915Z,93.91
2024-04-06T03:28:30.982Z,94.45
2024-04-06T03:30:59.981Z,94.53
2024-04-06T03:33:28.042Z,94.45
2024-04-06T03:35:56.327Z,94.54
2024-04-06T03:38:24.190Z,94.40
2024-04-06T03:40:52.258Z,94.41
2024-04-06T03:43:20.122Z,94.52
2024-04-06T03:45:48.604Z,94.22
2024-04-06T03:48:16.573Z,94.42
2024-04-06T03:50:44.449Z,94.35
2024-04-06T03:53:12.809Z,94.46
2024-04-06T03:55:40.776Z,94.52
2024-04-06T03:58:09.060Z,94.52
2024-04-06T04:00:37.357Z,94.49
2024-04-06T04:03:05.811Z,94.71
2024-04-06T04:05:33.982Z,94.60
2024-04-06T04:08:02.149Z,94.68
2024-04-06T04:10:30.019Z,94.92
2024-04-06T04:12:59.221Z,95.23
2024-04-06T04:15:27.080Z,95.20
2024-04-06T04:17:55.250Z,95.30
2024-04-06T04:20:23.125Z,94.75
2024-04-06T04:22:50.990Z,95.01
2024-04-06T04:25:18.915Z,95.18
2024-04-06T04:27:47.142Z,94.49
2024-04-06T04:30:17.045Z,94.44
2024-04-06T04:32:45.174Z,94.84
2024-04-06T04:35:13.484Z,95.18
2024-04-06T04:37:41.456Z,95.16
2024-04-06T04:40:10.441Z,94.86
2024-04-06T04:42:39.640Z,94.66
2024-04-06T04:45:13.055Z,95.05
2024-04-06T04:47:41.888Z,95.01
2024-04-06T04:50:13.171Z,94.86
2024-04-06T04:52:41.138Z,94.66
2024-04-06T04:55:09.003Z,94.73
2024-04-06T04:57:37.689Z,95.04
2024-04-06T05:00:06.476Z,95.28
2024-04-06T05:02:35.128Z,95.56
2024-04-06T05:05:05.179Z,95.76
2024-04-06T05:07:33.040Z,96.34
2024-04-06T05:10:01.533Z,96.81
2024-04-06T05:12:29.589Z,97.05
2024-04-06T05:14:57.791Z,97.32
2024-04-06T05:17:26.716Z,97.52
2024-04-06T05:19:54.830Z,97.55
2024-04-06T05:22:22.794Z,97.65
2024-04-06T05:24:50.656Z,97.29
2024-04-06T05:27:18.523Z,97.50
2024-04-06T05:29:46.392Z,97.59
2024-04-06T05:32:14.272Z,97.76
2024-04-06T05:34:42.142Z,97.96
2024-04-06T05:37:09.984Z,97.85
2024-04-06T05:39:37.854Z,97.68
2024-04-06T05:42:06.182Z,97.62
2024-04-06T05:44:34.018Z,97.55
2024-04-06T05:47:02.074Z,97.40
2024-04-06T05:49:29.929Z,97.33
2024-04-06T05:51:57.791Z,97.19
2024-04-06T05:54:25.656Z,97.01
2024-04-06T05:56:53.626Z,96.93
2024-04-06T05:59:21.488Z,96.75
2024-04-06T06:01:49.228Z,96.72
2024-04-06T06:04:17.116Z,96.66
2024-04-06T06:06:44.980Z,96.63
2024-04-06T06:09:12.846Z,96.48
2024-04-06T06:11:40.712Z,96.06
2024-04-06T06:14:08.487Z,95.85
2024-04-06T06:16:36.365Z,95.64
2024-04-06T06:19:04.408Z,95.42
2024-04-06T06:21:32.224Z,95.32
2024-04-06T06:24:00.165Z,95.18
2024-04-06T06:26:28.070Z,95.13
2024-04-06T06:28:55.974Z,95.04
2024-04-06T06:31:23.838Z,94.92
2024-04-06T06:33:52.830Z,94.72
2024-04-06T06:41:22.980Z,94.77
2024-04-06T06:43:50.854Z,94.41
2024-04-06T06:46:18.819Z,94.28
2024-04-06T06:48:46.679Z,93.86
2024-04-06T06:51:14.649Z,93.60
2024-04-06T06:53:42.831Z,93.23
2024-04-06T06:56:10.759Z,93.02
2024-04-06T06:58:38.653Z,92.66
2024-04-06T07:01:06.720Z,92.20
2024-04-06T07:03:34.688Z,91.90
2024-04-06T07:06:04.910Z,91.56
2024-04-06T07:08:32.928Z,91.25
2024-04-06T07:11:04.533Z,90.97
2024-04-06T07:13:32.731Z,90.54
2024-04-06T07:16:08.290Z,90.41
2024-04-06T07:18:38.950Z,90.36
2024-04-06T07:21:11.927Z,90.16
2024-04-06T07:23:39.936Z,89.89
2024-04-06T07:26:08.108Z,89.88
2024-04-06T07:28:39.148Z,89.88
2024-04-06T07:31:07.840Z,89.63
2024-04-06T07:33:35.696Z,89.52
2024-04-06T07:36:03.979Z,89.13
2024-04-06T07:38:31.951Z,89.03
2024-04-06T07:41:00.577Z,88.90
2024-04-06T07:43:29.115Z,88.29
2024-04-06T07:45:57.380Z,88.07
2024-04-06T07:48:25.361Z,87.70
2024-04-06T07:50:53.636Z,87.50
2024-04-06T07:53:23.516Z,87.29
2024-04-06T07:55:51.355Z,86.80
2024-04-06T07:58:19.267Z,86.41
2024-04-06T08:00:47.157Z,85.87
2024-04-06T08:03:14.998Z,85.58
2024-04-06T08:05:42.941Z,85.57
2024-04-06T08:08:10.728Z,85.56
2024-04-06T08:10:39.860Z,84.81
2024-04-06T08:13:07.941Z,84.73
2024-04-06T08:15:35.959Z,84.07
2024-04-06T08:18:04.728Z,83.67
2024-04-06T08:20:32.712Z,83.49
2024-04-06T08:23:00.688Z,83.19
2024-04-06T08:25:28.857Z,82.91
2024-04-06T08:27:56.721Z,82.87
2024-04-06T08:30:24.586Z,82.87
2024-04-06T08:33:01.989Z,82.50
2024-04-06T08:35:30.456Z,81.90
2024-04-06T08:37:58.319Z,81.49
2024-04-06T08:40:26.197Z,80.82
2024-04-06T08:42:57.748Z,80.65
2024-04-06T08:45:26.948Z,80.60
2024-04-06T08:47:55.926Z,80.80
2024-04-06T08:50:25.960Z,80.14
2024-04-06T08:52:54.012Z,79.53
2024-04-06T08:55:22.801Z,79.21
2024-04-06T08:57:51.175Z,78.58
2024-04-06T09:00:20.271Z,77.60
2024-04-06T09:02:48.238Z,76.90
2024-04-06T09:05:16.307Z,76.34
2024-04-06T09:07:44.687Z,76.13
2024-04-06T09:10:12.560Z,75.40
2024-04-06T09:12:41.230Z,75.09
2024-04-06T09:15:13.713Z,74.62
2024-04-06T09:17:43.823Z,74.12
2024-04-06T09:20:15.056Z,73.81
2024-04-06T09:22:43.878Z,72.93
2024-04-06T09:25:11.985Z,72.73
2024-04-06T09:27:46.142Z,72.46
2024-04-06T09:30:14.623Z,72.05
2024-04-06T09:32:44.327Z,71.87
2024-04-06T09:35:12.195Z,71.11
2024-04-06T09:37:41.598Z,70.59
2024-04-06T09:40:09.968Z,70.50
2024-04-06T09:42:38.666Z,70.63
2024-04-06T09:45:07.752Z,70.38
2024-04-06T09:47:36.549Z,70.28
2024-04-06T09:50:05.636Z,70.10
2024-04-06T09:52:33.811Z,69.54
2024-04-06T09:55:01.887Z,68.91
2024-04-06T09:57:30.356Z,68.48
2024-04-06T10:00:02.316Z,67.98
2024-04-06T10:02:33.975Z,67.11
2024-04-06T10:05:06.252Z,66.61
2024-04-06T10:07:35.343Z,66.39
2024-04-06T10:10:08.180Z,66.02
2024-04-06T10:12:43.538Z,65.78
2024-04-06T10:15:12.555Z,65.51
2024-04-06T10:17:46.234Z,65.33
2024-04-06T10:20:17.907Z,64.51
2024-04-06T10:22:52.683Z,64.03
2024-04-06T10:25:27.734Z,63.99
2024-04-06T10:28:02.160Z,63.24
2024-04-06T10:30:30.471Z,62.28
2024-04-06T10:32:58.743Z,62.26
2024-04-06T10:35:27.318Z,62.06
2024-04-06T10:37:56.415Z,61.20
2024-04-06T10:40:29.105Z,60.26
2024-04-06T10:42:56.959Z,58.78
2024-04-06T10:45:24.821Z,58.63
2024-04-06T10:47:52.690Z,58.51
2024-04-06T10:50:20.752Z,57.34
2024-04-06T10:52:49.030Z,57.07
2024-04-06T10:55:17.360Z,57.16
2024-04-06T10:57:45.478Z,57.18
2024-04-06T11:00:14.695Z,56.58
2024-04-06T11:02:43.870Z,56.27
2024-04-06T11:05:14.103Z,55.67
2024-04-06T11:07:42.993Z,55.34
2024-04-06T11:10:11.894Z,54.43
2024-04-06T11:12:40.983Z,54.24
2024-04-06T11:15:10.552Z,53.76
2024-04-06T11:17:38.435Z,53.08
2024-04-06T11:20:08.244Z,52.43
2024-04-06T11:22:40.316Z,52.60
2024-04-06T11:25:08.795Z,52.53
2024-04-06T11:27:36.662Z,52.89
2024-04-06T11:30:06.160Z,52.41
2024-04-06T11:32:34.141Z,51.85
2024-04-06T11:35:01.995Z,51.43
2024-04-06T11:37:29.960Z,51.20
2024-04-06T11:39:57.828Z,51.19
2024-04-06T11:42:27.466Z,50.91
2024-04-06T11:44:56.732Z,50.75
2024-04-06T11:47:24.611Z,50.61
2024-04-06T11:49:52.459Z,50.45
2024-04-06T11:52:20.684Z,50.24
2024-04-06T11:54:50.034Z,50.14
2024-04-06T11:57:17.904Z,50.40
2024-04-06T11:59:45.766Z,50.89
2024-04-06T12:02:13.631Z,51.20
2024-04-06T12:04:41.804Z,50.76
2024-04-06T12:07:10.181Z,50.31
2024-04-06T12:09:39.175Z,49.55
2024-04-06T12:12:09.345Z,48.90
2024-04-06T12:14:37.462Z,48.08
2024-04-06T12:17:11.749Z,47.58
2024-04-06T12:19:39.745Z,47.08
2024-04-06T12:22:07.753Z,46.29
2024-04-06T12:24:39.080Z,45.77
2024-04-06T12:27:07.541Z,45.61
2024-04-06T12:29:35.515Z,44.87
2024-04-06T12:32:05.011Z,44.10
2024-04-06T12:34:32.877Z,43.94
2024-04-06T12:37:04.754Z,43.59
2024-04-06T12:39:32.601Z,43.45
2024-04-06T12:42:00.628Z,43.55
2024-04-06T12:44:28.537Z,43.60
2024-04-06T12:46:56.414Z,43.88
2024-04-06T12:49:24.443Z,44.22
2024-04-06T12:51:52.468Z,44.49
2024-04-06T12:54:22.230Z,45.06
2024-04-06T12:57:09.786Z,45.44
2024-04-06T12:59:38.355Z,46.08
2024-04-06T13:02:07.540Z,46.70
2024-04-06T13:04:35.422Z,46.48
2024-04-06T13:07:04.311Z,46.49
2024-04-06T13:09:32.177Z,46.30
2024-04-06T13:12:00.043Z,46.34
2024-04-06T13:14:28.929Z,46.54
2024-04-06T13:16:56.999Z,46.91
2024-04-06T13:19:26.551Z,46.92
2024-04-06T13:21:54.482Z,46.65
2024-04-06T13:24:22.543Z,46.52
2024-04-06T13:26:50.510Z,46.23
2024-04-06T13:29:18.375Z,45.93
2024-04-06T13:31:46.241Z,45.71
2024-04-06T13:34:14.104Z,45.15
2024-04-06T13:36:42.072Z,44.15
2024-04-06T13:39:13.325Z,43.42
2024-04-06T13:41:41.184Z,42.67
2024-04-06T13:44:09.048Z,42.52
2024-04-06T13:46:36.913Z,42.35
2024-04-06T13:49:05.055Z,42.29
2024-04-06T13:51:32.905Z,42.07
2024-04-06T13:54:00.714Z,41.97
2024-04-06T13:56:28.580Z,41.61
2024-04-06T13:58:56.455Z,41.00
2024-04-06T14:01:24.356Z,40.48
2024-04-06T14:03:52.277Z,40.29
2024-04-06T14:06:20.716Z,39.74
2024-04-06T14:08:48.625Z,40.08
2024-04-06T14:11:16.469Z,40.45
2024-04-06T14:13:45.482Z,40.53
2024-04-06T14:16:13.453Z,40.42
2024-04-06T14:18:41.518Z,40.62
2024-04-06T14:21:09.484Z,40.50
2024-04-06T14:23:37.661Z,40.44
2024-04-06T14:26:06.754Z,40.72
2024-04-06T14:28:34.738Z,40.92
2024-04-06T14:31:02.799Z,40.86
2024-04-06T14:33:31.061Z,40.94
2024-04-06T14:35:58.940Z,40.72
2024-04-06T14:38:27.410Z,40.72
2024-04-06T14:40:55.275Z,40.87
2024-04-06T14:43:23.248Z,40.56
2024-04-06T14:45:51.531Z,41.01
2024-04-06T14:48:19.588Z,41.10
2024-04-06T14:50:47.556Z,41.11
2024-04-06T14:53:15.729Z,40.97
2024-04-06T14:55:43.905Z,40.55
2024-04-06T14:58:11.976Z,40.16
2024-04-06T15:00:39.876Z,40.01
2024-04-06T15:03:08.622Z,40.38
2024-04-06T15:05:36.688Z,39.86
2024-04-06T15:08:05.230Z,39.74
2024-04-06T15:10:34.790Z,39.39
2024-04-06T15:13:03.054Z,39.11
2024-04-06T15:15:31.021Z,38.66
2024-04-06T15:17:59.092Z,38.55
2024-04-06T15:20:26.957Z,38.53
2024-04-06T15:22:54.926Z,38.34
2024-04-06T15:25:22.913Z,38.28
2024-04-06T15:27:50.861Z,38.00
2024-04-06T15:30:18.731Z,37.56
2024-04-06T15:32:46.898Z,37.19
2024-04-06T15:35:14.777Z,37.18
2024-04-06T15:37:42.942Z,36.96
2024-04-06T15:40:11.419Z,36.57
2024-04-06T15:42:40.621Z,36.53
2024-04-06T15:45:09.126Z,36.55
2024-04-06T15:47:37.066Z,36.55
2024-04-06T15:50:05.550Z,36.55
2024-04-06T15:52:33.408Z,36.61
2024-04-06T15:55:01.577Z,36.82
2024-04-06T15:57:29.442Z,37.01
2024-04-06T15:59:57.617Z,37.30
2024-04-06T16:02:25.784Z,37.73
2024-04-06T16:04:53.755Z,37.78
2024-04-06T16:07:21.827Z,38.13
2024-04-06T16:09:49.704Z,38.47
2024-04-06T16:12:18.067Z,39.10
2024-04-06T16:14:45.934Z,39.49
2024-04-06T16:17:14.004Z,39.76
2024-04-06T16:19:42.481Z,40.11
2024-04-06T16:22:10.856Z,40.30
2024-04-06T16:24:39.545Z,40.63
2024-04-06T16:27:07.718Z,41.00
2024-04-06T16:29:35.582Z,41.37
2024-04-06T16:32:03.553Z,41.94
2024-04-06T16:34:36.331Z,42.79
2024-04-06T16:37:04.605Z,42.98
2024-04-06T16:39:32.724Z,43.20
2024-04-06T16:42:00.648Z,43.78
2024-04-06T16:44:30.056Z,44.55
2024-04-06T16:46:58.120Z,44.98
2024-04-06T16:49:26.039Z,45.21
2024-04-06T16:51:53.948Z,45.84
2024-04-06T16:54:22.314Z,46.78
2024-04-06T16:56:50.398Z,47.19
2024-04-06T16:59:18.473Z,47.48
2024-04-06T17:01:46.334Z,48.41
2024-04-06T17:04:14.199Z,49.02
2024-04-06T17:06:42.687Z,49.59
2024-04-06T17:09:10.543Z,50.24
2024-04-06T17:11:38.403Z,50.85
2024-04-06T17:14:06.677Z,51.57
2024-04-06T17:16:34.648Z,52.29
2024-04-06T17:19:02.464Z,52.55
2024-04-06T17:21:30.380Z,52.94
2024-04-06T17:23:58.348Z,53.13
2024-04-06T17:26:26.323Z,53.55
2024-04-06T17:28:54.128Z,54.33
2024-04-06T17:31:22.044Z,54.85
2024-04-06T17:33:50.116Z,55.48
2024-04-06T17:36:18.299Z,56.04
2024-04-06T17:38:47.005Z,56.51
2024-04-06T17:41:14.877Z,57.01
2024-04-06T17:43:42.714Z,57.47
2024-04-06T17:46:10.910Z,57.96
2024-04-06T17:48:39.665Z,58.59
2024-04-06T17:51:08.459Z,59.19
2024-04-06T17:53:36.426Z,59.80
2024-04-06T17:56:04.900Z,60.12
2024-04-06T17:58:32.819Z,60.71
2024-04-06T18:01:00.753Z,61.05
2024-04-06T18:03:28.807Z,61.52
2024-04-06T18:05:56.978Z,62.03
2024-04-06T18:08:24.842Z,62.41
2024-04-06T18:10:53.319Z,63.09
2024-04-06T18:13:23.108Z,63.48
2024-04-06T18:15:51.200Z,63.89
2024-04-06T18:18:19.069Z,64.27
2024-04-06T18:20:47.037Z,64.54
2024-04-06T18:23:15.618Z,65.04
2024-04-06T18:25:44.306Z,65.46
2024-04-06T18:28:12.675Z,65.69
2024-04-06T18:30:40.541Z,65.94
2024-04-06T18:33:08.822Z,66.20
2024-04-06T18:35:36.692Z,66.74
2024-04-06T18:38:04.914Z,67.08
2024-04-06T18:40:32.848Z,67.32
2024-04-06T18:43:02.021Z,67.40
2024-04-06T18:45:29.887Z,67.74
2024-04-06T18:47:59.733Z,67.89
2024-04-06T18:50:29.918Z,68.23
2024-04-06T18:52:57.783Z,68.64
2024-04-06T18:55:27.129Z,69.08
2024-04-06T18:57:55.462Z,69.36
2024-04-06T19:00:23.531Z,69.80
2024-04-06T19:02:51.502Z,70.04
2024-04-06T19:05:22.724Z,70.14
2024-04-06T19:07:51.118Z,70.40
2024-04-06T19:10:18.996Z,70.66
2024-04-06T19:12:46.852Z,70.86
2024-04-06T19:15:18.295Z,71.13
2024-04-06T19:17:46.060Z,71.44
2024-04-06T19:20:14.099Z,71.77
2024-04-06T19:22:41.997Z,71.90
2024-04-06T19:25:10.174Z,72.13
2024-04-06T19:27:38.151Z,72.45
2024-04-06T19:30:07.311Z,72.42
2024-04-06T19:32:36.223Z,72.67
2024-04-06T19:35:04.601Z,72.96
2024-04-06T19:37:33.138Z,73.14
2024-04-06T19:40:01.079Z,73.29
2024-04-06T19:42:29.424Z,73.48
2024-04-06T19:44:57.296Z,73.64
2024-04-06T19:47:25.461Z,73.79
2024-04-06T19:49:53.334Z,73.98
2024-04-06T19:52:21.199Z,73.97
2024-04-06T19:54:48.960Z,74.03
2024-04-06T19:57:16.823Z,74.13
2024-04-06T19:59:44.690Z,74.24
2024-04-06T20:02:13.173Z,74.41
2024-04-06T20:04:42.085Z,74.50
2024-04-06T20:07:10.132Z,74.49
2024-04-06T20:09:38.853Z,74.70
2024-04-06T20:12:07.086Z,74.89
2024-04-06T20:14:34.959Z,74.93
2024-04-06T20:17:03.026Z,75.20
2024-04-06T20:19:31.073Z,75.44
2024-04-06T20:22:17.698Z,75.48
2024-04-06T20:25:04.402Z,75.65
2024-04-06T20:27:32.382Z,75.86
2024-04-06T20:30:00.325Z,75.86
2024-04-06T20:32:28.200Z,76.13
2024-04-06T20:34:56.073Z,76.24
2024-04-06T20:37:24.040Z,76.40
2024-04-06T20:39:52.009Z,76.56
2024-04-06T20:42:20.280Z,76.93
2024-04-06T20:44:48.670Z,77.15
2024-04-06T20:47:16.630Z,77.34
2024-04-06T20:49:44.499Z,77.54
2024-04-06T20:52:17.065Z,77.68
2024-04-06T20:54:44.933Z,77.91
2024-04-06T20:57:12.914Z,78.13
2024-04-06T20:59:41.500Z,78.38
2024-04-06T21:02:09.754Z,78.49
2024-04-06T21:04:38.291Z,78.62
2024-04-06T21:07:06.203Z,79.07
2024-04-06T21:09:34.276Z,79.31
2024-04-06T21:12:02.241Z,79.46
2024-04-06T21:14:30.117Z,79.20
2024-04-06T21:16:57.975Z,79.33
2024-04-06T21:19:26.556Z,79.35
2024-04-06T21:21:54.931Z,79.56
2024-04-06T21:24:23.002Z,79.54
2024-04-06T21:26:50.870Z,79.50
2024-04-06T21:29:18.933Z,79.83
2024-04-06T21:31:46.798Z,79.92
2024-04-06T21:34:14.982Z,80.39
2024-04-06T21:36:43.514Z,80.54
2024-04-06T21:39:11.423Z,80.61
2024-04-06T21:41:40.612Z,80.93
2024-04-06T21:44:09.102Z,80.97
2024-04-06T21:46:37.029Z,81.13
2024-04-06T21:49:05.037Z,81.29
2024-04-06T21:51:33.006Z,81.42
2024-04-06T21:54:00.979Z,81.63
2024-04-06T21:56:29.044Z,82.02
2024-04-06T21:58:57.416Z,82.37
2024-04-06T22:01:26.236Z,82.82
2024-04-06T22:03:54.174Z,83.02
2024-04-06T22:06:22.853Z,83.20
2024-04-06T22:08:51.959Z,83.11
2024-04-06T22:11:19.920Z,83.05
2024-04-06T22:13:47.790Z,82.90
2024-04-06T22:16:15.647Z,82.83
2024-04-06T22:18:43.465Z,82.74
2024-04-06T22:21:11.378Z,82.61
2024-04-06T22:23:39.246Z,82.68
2024-04-06T22:26:07.212Z,82.37
2024-04-06T22:28:35.081Z,81.97
2024-04-06T22:31:03.149Z,81.49
2024-04-06T22:33:31.111Z,81.27
2024-04-06T22:35:58.978Z,81.07
2024-04-06T22:38:26.946Z,80.82
2024-04-06T22:40:55.603Z,80.60
2024-04-06T22:43:23.598Z,80.67
2024-04-06T22:45:51.665Z,80.66
2024-04-06T22:48:19.545Z,80.66
2024-04-06T22:50:47.398Z,80.87
2024-04-06T22:53:15.260Z,80.98
2024-04-06T22:55:43.298Z,81.14
2024-04-06T22:58:11.609Z,81.44
2024-04-06T23:00:39.586Z,81.66
2024-04-06T23:03:07.859Z,81.80
2024-04-06T23:05:36.122Z,81.76
2024-04-06T23:08:04.638Z,81.72
2024-04-06T23:10:33.706Z,81.55
2024-04-06T23:13:01.677Z,81.35
2024-04-06T23:15:29.953Z,81.14
2024-04-06T23:17:57.819Z,80.92
2024-04-06T23:20:25.676Z,80.99
2024-04-06T23:22:53.540Z,81.06
2024-04-06T23:25:21.611Z,81.31
2024-04-06T23:27:49.476Z,81.71
2024-04-06T23:30:17.551Z,82.10
2024-04-06T23:32:45.412Z,82.38
2024-04-06T23:35:13.276Z,82.61
2024-04-06T23:37:41.285Z,82.87
2024-04-06T23:40:09.727Z,83.04
2024-04-06T23:42:37.590Z,83.17
2024-04-06T23:45:06.067Z,83.36
2024-04-06T23:47:33.949Z,83.61
2024-04-06T23:50:01.800Z,83.95
2024-04-06T23:52:29.768Z,83.86
2024-04-06T23:54:59.173Z,83.94
2024-04-06T23:57:27.444Z,83.89
2024-04-06T23:59:55.420Z,84.21
